Time;durP1;ratioP1;P1;durP2;ratioP2;P2;SDS_P1;SDS_P2;PMS_P1;PMS_P2;Temp;Humidity;BMP_temperature;BMP_pressure;BME280_temperature;BME280_humidity;BME280_pressure;Samples;Min_cycle;Max_cycle;Signal;HPM_P1;HPM_P2
2022/05/04 00:00:36;;;;;;;11.13;10.20;;;;;;;-141.48;100.00;69781.59;5164421;28;20510;-58
2022/05/04 00:06:33;;;;;;;13.30;12.02;;;;;;;-141.48;100.00;69781.59;5165690;28;20030;-57
2022/05/04 00:09:03;;;;;;;13.02;11.93;;;;;;;-141.48;100.00;69781.59;5165491;28;20030;-56
2022/05/04 00:11:34;;;;;;;14.18;11.32;;;;;;;-141.48;100.00;69781.59;5164171;28;20026;-58
2022/05/04 00:14:14;;;;;;;12.70;11.32;;;;;;;-141.48;100.00;69781.59;5164092;28;20038;-56
2022/05/04 00:16:44;;;;;;;13.25;12.05;;;;;;;-141.48;100.00;69781.59;5164239;28;20477;-58
2022/05/04 00:19:14;;;;;;;12.80;11.70;;;;;;;-141.48;100.00;69781.59;5164361;28;20033;-58
2022/05/04 00:21:45;;;;;;;13.35;12.07;;;;;;;-141.48;100.00;69781.59;5164059;28;20030;-59
2022/05/04 00:24:20;;;;;;;12.10;11.13;;;;;;;-141.48;100.00;69781.59;5163896;28;20441;-57
2022/05/04 00:26:50;;;;;;;11.93;11.05;;;;;;;-141.48;100.00;69781.59;5165286;28;20084;-56
2022/05/04 00:29:20;;;;;;;10.75;9.73;;;;;;;-141.48;100.00;69781.59;5147771;28;20042;-57
2022/05/04 00:31:51;;;;;;;13.73;12.73;;;;;;;-141.48;100.00;69781.59;5147792;28;20026;-58
2022/05/04 00:34:22;;;;;;;13.60;12.40;;;;;;;-141.48;100.00;69781.59;5147537;28;20445;-58
2022/05/04 00:36:52;;;;;;;24.63;13.63;;;;;;;-141.48;100.00;69781.59;5163828;28;20026;-58
2022/05/04 00:39:22;;;;;;;13.90;12.43;;;;;;;-141.48;100.00;69781.59;5163811;28;20030;-57
2022/05/04 00:41:53;;;;;;;14.48;10.88;;;;;;;-141.48;100.00;69781.59;5165064;28;20050;-58
2022/05/04 00:44:23;;;;;;;12.35;11.25;;;;;;;-141.48;100.00;69781.59;5147380;28;20022;-58
2022/05/04 00:46:54;;;;;;;11.88;11.02;;;;;;;-141.48;100.00;69781.59;5147773;28;20061;-57
2022/05/04 00:49:24;;;;;;;13.23;12.10;;;;;;;-141.48;100.00;69781.59;5147791;28;20038;-58
2022/05/04 00:51:55;;;;;;;18.65;10.93;;;;;;;-141.48;100.00;69781.59;5163246;28;20026;-56
2022/05/04 00:54:26;;;;;;;11.70;10.55;;;;;;;-141.48;100.00;69781.59;5147544;28;20168;-57
2022/05/04 00:56:57;;;;;;;16.63;11.43;;;;;;;-141.48;100.00;69781.59;5165183;28;20030;-55
2022/05/04 00:59:29;;;;;;;20.45;13.20;;;;;;;-141.48;100.00;69781.59;5164956;28;20026;-57
2022/05/04 01:02:00;;;;;;;16.88;11.93;;;;;;;-141.48;100.00;69781.59;5163538;28;20084;-57
2022/05/04 01:04:31;;;;;;;12.00;10.88;;;;;;;-141.48;100.00;69781.59;5147771;28;20422;-56
2022/05/04 01:07:05;;;;;;;13.63;11.07;;;;;;;-141.48;100.00;69781.59;5147941;28;20368;-54
2022/05/04 01:09:35;;;;;;;10.38;9.52;;;;;;;-141.48;100.00;69781.59;5147803;28;20041;-56
2022/05/04 01:12:06;;;;;;;12.05;10.98;;;;;;;-141.48;100.00;69781.59;5165013;28;20145;-55
2022/05/04 01:14:37;;;;;;;13.25;10.65;;;;;;;-141.48;100.00;69781.59;5147401;28;20397;-55
2022/05/04 01:17:07;;;;;;;11.35;9.52;;;;;;;-141.48;100.00;69781.59;5147871;28;20023;-57
2022/05/04 01:19:38;;;;;;;12.48;11.20;;;;;;;-141.48;100.00;69781.59;5163911;28;20049;-55
2022/05/04 01:22:09;;;;;;;10.65;9.65;;;;;;;-141.48;100.00;69781.59;5147427;28;20030;-57
2022/05/04 01:27:34;;;;;;;11.90;8.90;;;;;;;-141.48;100.00;69781.59;6072783;23;20453;-78
2022/05/04 01:30:05;;;;;;;18.55;10.85;;;;;;;-141.48;100.00;69781.59;5166808;28;20062;-79
2022/05/04 01:32:35;;;;;;;25.17;11.98;;;;;;;-141.48;100.00;69781.59;5166204;28;20022;-78
2022/05/04 01:35:06;;;;;;;10.30;9.40;;;;;;;-141.48;100.00;69781.59;5166986;28;20105;-78
2022/05/04 01:37:36;;;;;;;12.68;10.27;;;;;;;-141.48;100.00;69781.59;5167919;28;20030;-79
2022/05/04 01:40:07;;;;;;;17.00;9.88;;;;;;;-141.48;100.00;69781.59;5167637;28;20077;-78
2022/05/04 01:42:38;;;;;;;10.65;9.63;;;;;;;-141.48;100.00;69781.59;5168484;28;20030;-78
2022/05/04 01:45:09;;;;;;;10.63;9.63;;;;;;;-141.48;100.00;69781.59;5168401;28;20113;-78
2022/05/04 01:47:39;;;;;;;9.57;8.57;;;;;;;-141.48;100.00;69781.59;5154150;28;20030;-78
2022/05/04 01:50:10;;;;;;;11.63;10.68;;;;;;;-141.48;100.00;69781.59;5167826;28;20097;-78
2022/05/04 01:52:56;;;;;;;16.02;8.43;;;;;;;-141.48;100.00;69781.59;5167654;28;20104;-77
2022/05/04 01:55:47;;;;;;;11.10;10.20;;;;;;;-141.48;100.00;69781.59;5173136;28;20082;-78
2022/05/04 01:58:17;;;;;;;11.13;10.10;;;;;;;-141.48;100.00;69781.59;5171465;28;20038;-78
2022/05/04 02:00:48;;;;;;;9.90;9.07;;;;;;;-141.48;100.00;69781.59;5171519;28;20077;-78
2022/05/04 02:03:18;;;;;;;12.13;8.75;;;;;;;-141.48;100.00;69781.59;5171282;28;20121;-78
2022/05/04 02:05:49;;;;;;;9.15;8.35;;;;;;;-141.48;100.00;69781.59;5176436;28;20484;-78
2022/05/04 02:08:19;;;;;;;9.57;8.05;;;;;;;-141.48;100.00;69781.59;5180033;28;20027;-78
2022/05/04 02:10:50;;;;;;;11.68;10.60;;;;;;;-141.48;100.00;69781.59;5180586;28;20052;-78
2022/05/04 02:13:20;;;;;;;9.02;8.32;;;;;;;-141.48;100.00;69781.59;5179599;28;20024;-78
2022/05/04 02:15:51;;;;;;;13.75;8.70;;;;;;;-141.48;100.00;69781.59;5178947;28;20098;-78
2022/05/04 02:18:21;;;;;;;11.18;8.95;;;;;;;-141.48;100.00;69781.59;5178519;28;20027;-79
2022/05/04 02:20:51;;;;;;;8.63;7.85;;;;;;;-141.48;100.00;69781.59;5171641;28;20026;-77
2022/05/04 02:23:22;;;;;;;10.65;8.57;;;;;;;-141.48;100.00;69781.59;5171407;28;20034;-80
2022/05/04 02:25:52;;;;;;;9.75;8.23;;;;;;;-141.48;100.00;69781.59;5152947;28;20026;-77
2022/05/04 02:28:23;;;;;;;9.90;9.18;;;;;;;-141.48;100.00;69781.59;5171895;28;20041;-77
2022/05/04 02:30:53;;;;;;;9.32;8.50;;;;;;;-141.48;100.00;69781.59;5154875;28;20432;-77
2022/05/04 02:33:24;;;;;;;17.17;8.02;;;;;;;-141.48;100.00;69781.59;5171856;28;20030;-78
2022/05/04 02:38:43;;;;;;;12.23;8.25;;;;;;;-141.48;100.00;69781.59;5172571;28;20065;-78
2022/05/04 02:41:13;;;;;;;9.00;8.35;;;;;;;-141.48;100.00;69781.59;5171653;28;20022;-78
2022/05/04 02:43:44;;;;;;;10.45;9.43;;;;;;;-141.48;100.00;69781.59;5171371;28;20022;-77
2022/05/04 02:46:16;;;;;;;13.95;8.82;;;;;;;-141.48;100.00;69781.59;5172673;28;20034;-77
2022/05/04 02:48:47;;;;;;;9.18;8.07;;;;;;;-141.48;100.00;69781.59;5175379;28;20030;-78
2022/05/04 02:51:17;;;;;;;12.43;8.82;;;;;;;-141.48;100.00;69781.59;5176368;28;20034;-78
2022/05/04 02:53:48;;;;;;;9.43;7.78;;;;;;;-141.48;100.00;69781.59;5175786;28;20038;-78
2022/05/04 02:56:18;;;;;;;9.32;8.43;;;;;;;-141.48;100.00;69781.59;5180876;28;20468;-80
2022/05/04 02:58:51;;;;;;;11.35;10.23;;;;;;;-141.48;100.00;69781.59;5177905;28;20026;-78
2022/05/04 03:04:10;;;;;;;12.07;8.75;;;;;;;-141.48;100.00;69781.59;5179377;28;20459;-78
2022/05/04 03:06:41;;;;;;;9.60;8.70;;;;;;;-141.48;100.00;69781.59;5165693;28;20022;-77
2022/05/04 03:09:12;;;;;;;9.18;8.30;;;;;;;-141.48;100.00;69781.59;5175391;28;20030;-77
2022/05/04 03:11:54;;;;;;;11.73;10.52;;;;;;;-141.48;100.00;69781.59;5170443;28;20033;-77
2022/05/04 03:14:27;;;;;;;12.00;10.88;;;;;;;-141.48;100.00;69781.59;5170762;28;20075;-77
2022/05/04 03:16:58;;;;;;;9.55;8.57;;;;;;;-141.48;100.00;69781.59;5170506;28;20022;-78
2022/05/04 03:19:28;;;;;;;10.30;9.40;;;;;;;-141.48;100.00;69781.59;5152807;28;20052;-77
2022/05/04 03:24:39;;;;;;;;;;;;;;;-141.48;100.00;69781.59;4636666;23;20046;-64
2022/05/04 03:27:10;;;;;;;13.63;8.23;;;;;;;-141.48;100.00;69781.59;5148192;28;19914;-65
2022/05/04 03:29:40;;;;;;;10.25;9.52;;;;;;;-141.48;100.00;69781.59;5148412;28;20103;-61
2022/05/04 03:32:11;;;;;;;8.35;7.65;;;;;;;-141.48;100.00;69781.59;5148630;28;20022;-62
2022/05/04 03:34:41;;;;;;;15.80;9.05;;;;;;;-141.48;100.00;69781.59;5147936;28;20033;-62
2022/05/04 03:37:12;;;;;;;11.85;8.23;;;;;;;-141.48;100.00;69781.59;5148511;28;20360;-61
2022/05/04 03:39:42;;;;;;;13.73;10.25;;;;;;;-141.48;100.00;69781.59;5148414;28;20453;-60
2022/05/04 03:42:13;;;;;;;14.82;9.63;;;;;;;-141.48;100.00;69781.59;5148491;28;20026;-61
2022/05/04 03:44:43;;;;;;;10.55;9.57;;;;;;;-141.48;100.00;69781.59;5148616;28;20034;-61
2022/05/04 03:47:14;;;;;;;11.70;10.48;;;;;;;-141.48;100.00;69781.59;5148654;28;20017;-61
2022/05/04 03:49:44;;;;;;;12.63;9.55;;;;;;;-141.48;100.00;69781.59;5148576;28;20533;-61
2022/05/04 03:52:15;;;;;;;16.35;10.68;;;;;;;-141.48;100.00;69781.59;5165002;28;20026;-62
2022/05/04 03:54:45;;;;;;;11.35;9.65;;;;;;;-141.48;100.00;69781.59;5147836;28;20065;-60
2022/05/04 03:57:16;;;;;;;15.93;9.75;;;;;;;-141.48;100.00;69781.59;5148416;28;20041;-61
2022/05/04 03:59:46;;;;;;;10.77;9.45;;;;;;;-141.48;100.00;69781.59;5148149;28;20034;-64
2022/05/04 04:02:19;;;;;;;10.77;8.85;;;;;;;-141.48;100.00;69781.59;5148085;28;20034;-61
2022/05/04 04:04:50;;;;;;;14.57;12.25;;;;;;;-141.48;100.00;69781.59;5147836;28;20037;-60
2022/05/04 04:07:20;;;;;;;11.00;9.52;;;;;;;-141.48;100.00;69781.59;5148185;28;20022;-62
2022/05/04 04:09:51;;;;;;;12.57;9.68;;;;;;;-141.48;100.00;69781.59;5147738;28;20080;-62
2022/05/04 04:12:21;;;;;;;9.82;9.10;;;;;;;-141.48;100.00;69781.59;5147699;28;20034;-60
2022/05/04 04:14:52;;;;;;;12.15;10.77;;;;;;;-141.48;100.00;69781.59;5147325;28;20026;-64
2022/05/04 04:17:22;;;;;;;10.13;9.13;;;;;;;-141.48;100.00;69781.59;5147392;28;20057;-60
2022/05/04 04:22:41;;;;;;;12.27;11.00;;;;;;;-141.48;100.00;69781.59;5165272;28;20045;-61
2022/05/04 04:25:12;;;;;;;12.75;9.65;;;;;;;-141.48;100.00;69781.59;5148134;28;20030;-60
2022/05/04 04:27:42;;;;;;;10.85;9.80;;;;;;;-141.48;100.00;69781.59;5147450;28;20076;-61
2022/05/04 04:30:13;;;;;;;14.65;11.68;;;;;;;-141.48;100.00;69781.59;5148099;28;20037;-62
2022/05/04 04:32:44;;;;;;;12.35;10.50;;;;;;;-141.48;100.00;69781.59;5147675;28;20080;-62
2022/05/04 04:35:15;;;;;;;13.13;11.77;;;;;;;-141.48;100.00;69781.59;5147079;28;20081;-61
2022/05/04 04:37:45;;;;;;;10.57;9.65;;;;;;;-141.48;100.00;69781.59;5147236;28;20034;-60
2022/05/04 04:40:15;;;;;;;13.68;10.48;;;;;;;-141.48;100.00;69781.59;5151235;28;20028;-62
2022/05/04 04:42:46;;;;;;;18.52;11.38;;;;;;;-141.48;100.00;69781.59;5146882;28;20061;-61
2022/05/04 04:45:17;;;;;;;18.05;12.90;;;;;;;-141.48;100.00;69781.59;5146681;28;20022;-60
2022/05/04 04:47:48;;;;;;;13.43;12.10;;;;;;;-141.48;100.00;69781.59;5163773;28;20014;-62
2022/05/04 04:50:18;;;;;;;12.00;10.77;;;;;;;-141.48;100.00;69781.59;5146696;28;20037;-61
2022/05/04 04:52:49;;;;;;;19.55;12.55;;;;;;;-141.48;100.00;69781.59;5146919;28;20065;-63
2022/05/04 04:55:20;;;;;;;13.48;12.05;;;;;;;-141.48;100.00;69781.59;5163135;28;20030;-60
2022/05/04 04:57:50;;;;;;;17.52;11.25;;;;;;;-141.48;100.00;69781.59;5162997;28;20117;-61
2022/05/04 05:00:21;;;;;;;17.10;10.70;;;;;;;-141.48;100.00;69781.59;5146828;28;20026;-62
2022/05/04 05:02:51;;;;;;;14.85;12.65;;;;;;;-141.48;100.00;69781.59;5163127;28;20414;-63
2022/05/04 05:05:23;;;;;;;13.18;11.93;;;;;;;-141.48;100.00;69781.59;5146448;28;20026;-61
2022/05/04 05:07:53;;;;;;;12.95;10.63;;;;;;;-141.48;100.00;69781.59;5163185;28;20379;-62
2022/05/04 05:10:24;;;;;;;12.43;11.20;;;;;;;-141.48;100.00;69781.59;5146820;28;20031;-61
2022/05/04 05:12:54;;;;;;;15.60;13.43;;;;;;;-141.48;100.00;69781.59;5164150;28;20557;-61
2022/05/04 05:18:14;;;;;;;12.65;11.55;;;;;;;-141.48;100.00;69781.59;5164280;28;20038;-63
2022/05/04 05:20:44;;;;;;;13.60;11.60;;;;;;;-141.48;100.00;69781.59;5146629;28;20026;-62
2022/05/04 05:23:15;;;;;;;14.57;10.77;;;;;;;-141.48;100.00;69781.59;5163897;28;20042;-62
2022/05/04 05:25:45;;;;;;;20.08;11.82;;;;;;;-141.48;100.00;69781.59;5146572;28;20026;-60
2022/05/04 05:28:16;;;;;;;15.15;8.95;;;;;;;-141.48;100.00;69781.59;5164144;28;20470;-61
2022/05/04 05:30:46;;;;;;;10.13;9.20;;;;;;;-141.48;100.00;69781.59;5162576;28;20022;-61
2022/05/04 05:33:17;;;;;;;11.27;10.30;;;;;;;-141.48;100.00;69781.59;5146493;28;20134;-62
2022/05/04 05:35:47;;;;;;;12.15;11.10;;;;;;;-141.48;100.00;69781.59;5162276;28;20065;-61
2022/05/04 05:38:18;;;;;;;16.35;11.18;;;;;;;-141.48;100.00;69781.59;5147173;28;20026;-61
2022/05/04 05:40:48;;;;;;;13.02;10.43;;;;;;;-141.48;100.00;69781.59;5150579;28;20030;-60
2022/05/04 05:43:19;;;;;;;14.65;9.25;;;;;;;-141.48;100.00;69781.59;5149948;28;20076;-60
2022/05/04 05:45:49;;;;;;;9.25;8.45;;;;;;;-141.48;100.00;69781.59;5146282;28;20255;-62
2022/05/04 05:48:20;;;;;;;11.25;10.25;;;;;;;-141.48;100.00;69781.59;5148963;28;20026;-60
2022/05/04 05:50:51;;;;;;;21.85;10.27;;;;;;;-141.48;100.00;69781.59;5166948;28;20026;-62
2022/05/04 05:53:22;;;;;;;11.82;10.50;;;;;;;-141.48;100.00;69781.59;5150051;28;20019;-62
2022/05/04 05:55:53;;;;;;;10.45;8.93;;;;;;;-141.48;100.00;69781.59;5150379;28;20053;-61
2022/05/04 05:58:24;;;;;;;14.80;9.82;;;;;;;-141.48;100.00;69781.59;5150958;28;20026;-61
2022/05/04 06:00:54;;;;;;;9.02;8.25;;;;;;;-141.48;100.00;69781.59;5166490;28;20084;-61
2022/05/04 06:03:25;;;;;;;10.70;9.65;;;;;;;-141.48;100.00;69781.59;5150112;28;20026;-61
2022/05/04 06:05:55;;;;;;;10.00;9.10;;;;;;;-141.48;100.00;69781.59;5150260;28;20076;-61
2022/05/04 06:08:26;;;;;;;10.95;9.73;;;;;;;-141.48;100.00;69781.59;5149842;28;20398;-62
2022/05/04 06:10:56;;;;;;;10.50;9.45;;;;;;;-141.48;100.00;69781.59;5166158;28;20418;-61
2022/05/04 06:13:27;;;;;;;9.30;8.60;;;;;;;-141.48;100.00;69781.59;5149034;28;20442;-61
2022/05/04 06:15:57;;;;;;;9.20;8.38;;;;;;;-141.48;100.00;69781.59;5149887;28;20049;-61
2022/05/04 06:18:28;;;;;;;11.52;8.63;;;;;;;-141.48;100.00;69781.59;5165829;28;20549;-63
2022/05/04 06:20:59;;;;;;;26.88;9.32;;;;;;;-141.48;100.00;69781.59;5149329;28;20039;-63
2022/05/04 06:23:30;;;;;;;14.18;9.13;;;;;;;-141.48;100.00;69781.59;5149110;28;20023;-63
2022/05/04 06:26:00;;;;;;;16.85;10.05;;;;;;;-141.48;100.00;69781.59;5149450;28;20057;-63
2022/05/04 06:28:31;;;;;;;12.27;9.57;;;;;;;-141.48;100.00;69781.59;5149628;28;20084;-63
2022/05/04 06:34:10;;;;;;;10.77;9.20;;;;;;;-141.48;100.00;69781.59;5167189;28;20454;-63
2022/05/04 06:36:42;;;;;;;11.98;9.18;;;;;;;-141.48;100.00;69781.59;5149917;28;20122;-63
2022/05/04 06:39:12;;;;;;;11.57;8.95;;;;;;;-141.48;100.00;69781.59;5165588;28;20034;-60
2022/05/04 06:41:42;;;;;;;9.25;8.30;;;;;;;-141.48;100.00;69781.59;5149294;28;20030;-61
2022/05/04 06:44:13;;;;;;;14.98;9.93;;;;;;;-141.48;100.00;69781.59;5148954;28;20022;-61
2022/05/04 06:46:43;;;;;;;13.40;9.65;;;;;;;-141.48;100.00;69781.59;5165300;28;20517;-61
2022/05/04 06:49:14;;;;;;;16.15;9.00;;;;;;;-141.48;100.00;69781.59;5165223;28;20061;-61
2022/05/04 06:51:44;;;;;;;10.30;9.38;;;;;;;-141.48;100.00;69781.59;5148334;28;20061;-63
2022/05/04 06:54:15;;;;;;;7.78;7.03;;;;;;;-141.48;100.00;69781.59;5149182;28;20030;-64
2022/05/04 06:56:45;;;;;;;11.77;7.90;;;;;;;-141.48;100.00;69781.59;5148893;28;20139;-67
2022/05/04 06:59:16;;;;;;;10.00;8.40;;;;;;;-141.48;100.00;69781.59;5149334;28;20026;-64
2022/05/04 07:01:46;;;;;;;8.65;7.57;;;;;;;-141.48;100.00;69781.59;5149106;28;20414;-64
2022/05/04 07:04:16;;;;;;;9.68;8.70;;;;;;;-141.48;100.00;69781.59;5165881;28;20529;-63
2022/05/04 07:06:47;;;;;;;9.05;6.93;;;;;;;-141.48;100.00;69781.59;5165286;28;20018;-64
2022/05/04 07:09:18;;;;;;;9.02;7.57;;;;;;;-141.48;100.00;69781.59;5165959;28;20022;-61
2022/05/04 07:11:48;;;;;;;11.68;8.07;;;;;;;-141.48;100.00;69781.59;5148936;28;20529;-63
2022/05/04 07:14:19;;;;;;;17.58;6.93;;;;;;;-141.48;100.00;69781.59;5148629;28;20438;-65
2022/05/04 07:16:49;;;;;;;8.32;7.55;;;;;;;-141.48;100.00;69781.59;5148428;28;20053;-63
2022/05/04 07:19:20;;;;;;;16.20;6.45;;;;;;;-141.48;100.00;69781.59;5165901;28;20034;-61
2022/05/04 07:21:50;;;;;;;14.13;7.85;;;;;;;-141.48;100.00;69781.59;5148652;28;20117;-64
2022/05/04 07:24:21;;;;;;;7.25;6.32;;;;;;;-141.48;100.00;69781.59;5165575;28;20121;-64
2022/05/04 07:26:51;;;;;;;8.88;8.05;;;;;;;-141.48;100.00;69781.59;5148504;28;20030;-60
2022/05/04 07:29:22;;;;;;;8.13;7.30;;;;;;;-141.48;100.00;69781.59;5164747;28;20030;-62
2022/05/04 07:31:52;;;;;;;9.30;6.57;;;;;;;-141.48;100.00;69781.59;5148390;28;20022;-59
2022/05/04 07:34:23;;;;;;;9.70;6.70;;;;;;;-141.48;100.00;69781.59;5147376;28;20058;-63
2022/05/04 07:36:53;;;;;;;11.77;8.00;;;;;;;-141.48;100.00;69781.59;5148202;28;20041;-65
2022/05/04 07:42:24;;;;;;;9.82;7.80;;;;;;;-141.48;100.00;69781.59;5165641;28;20037;-64
2022/05/04 07:45:01;;;;;;;18.67;8.35;;;;;;;-141.48;100.00;69781.59;5148208;28;20026;-65
2022/05/04 07:47:34;;;;;;;19.23;8.27;;;;;;;-141.48;100.00;69781.59;5164258;28;20105;-64
2022/05/04 07:50:06;;;;;;;7.28;6.68;;;;;;;-141.48;100.00;69781.59;5164370;28;20433;-66
2022/05/04 07:52:37;;;;;;;12.82;8.07;;;;;;;-141.48;100.00;69781.59;5165695;28;20026;-66
2022/05/04 07:55:10;;;;;;;10.07;9.05;;;;;;;-141.48;100.00;69781.59;5147587;28;20465;-66
2022/05/04 07:57:41;;;;;;;11.10;8.07;;;;;;;-141.48;100.00;69781.59;5164010;28;20498;-65
2022/05/04 08:05:50;;;;;;;13.40;7.93;;;;;;;-141.48;100.00;69781.59;5166450;28;20041;-65
2022/05/04 08:08:21;;;;;;;18.48;10.05;;;;;;;-141.48;100.00;69781.59;5148728;28;20022;-63
2022/05/04 08:10:51;;;;;;;8.75;7.95;;;;;;;-141.48;100.00;69781.59;5148854;28;20030;-63
2022/05/04 08:13:22;;;;;;;12.00;10.90;;;;;;;-141.48;100.00;69781.59;5148334;28;20026;-67
2022/05/04 08:15:52;;;;;;;9.55;8.73;;;;;;;-141.48;100.00;69781.59;5148258;28;20030;-66
2022/05/04 08:18:25;;;;;;;12.43;9.77;;;;;;;-141.48;100.00;69781.59;5163804;28;20026;-63
2022/05/04 08:20:55;;;;;;;12.23;9.98;;;;;;;-141.48;100.00;69781.59;5147470;28;20088;-63
2022/05/04 08:23:26;;;;;;;9.73;8.85;;;;;;;-141.48;100.00;69781.59;5163187;28;20497;-63
2022/05/04 08:25:56;;;;;;;15.85;10.15;;;;;;;-141.48;100.00;69781.59;5163615;28;20026;-64
2022/05/04 08:28:27;;;;;;;14.30;9.98;;;;;;;-141.48;100.00;69781.59;5147483;28;20026;-62
2022/05/04 08:30:58;;;;;;;11.57;8.25;;;;;;;-141.48;100.00;69781.59;5163961;28;20038;-64
2022/05/04 08:33:29;;;;;;;10.98;7.93;;;;;;;-141.48;100.00;69781.59;5147962;28;20252;-62
2022/05/04 08:36:00;;;;;;;12.40;10.75;;;;;;;-141.48;100.00;69781.59;5147401;28;20097;-64
2022/05/04 08:38:30;;;;;;;10.65;9.23;;;;;;;-141.48;100.00;69781.59;5147810;28;20426;-61
2022/05/04 08:41:02;;;;;;;10.85;9.07;;;;;;;-141.48;100.00;69781.59;5147422;28;20045;-62
2022/05/04 08:43:33;;;;;;;9.02;8.15;;;;;;;-141.48;100.00;69781.59;5146982;28;20030;-60
2022/05/04 08:46:04;;;;;;;9.23;8.43;;;;;;;-141.48;100.00;69781.59;5163648;28;20053;-63
2022/05/04 08:48:36;;;;;;;11.48;10.40;;;;;;;-141.48;100.00;69781.59;5147364;28;20058;-62
2022/05/04 08:51:08;;;;;;;9.85;8.93;;;;;;;-141.48;100.00;69781.59;5163285;28;20036;-63
2022/05/04 08:53:42;;;;;;;9.52;8.65;;;;;;;-141.48;100.00;69781.59;5163138;28;20026;-65
2022/05/04 08:56:13;;;;;;;13.38;9.82;;;;;;;-141.48;100.00;69781.59;5163323;28;20038;-64
2022/05/04 08:58:44;;;;;;;10.15;8.55;;;;;;;-141.48;100.00;69781.59;5147051;28;20022;-62
2022/05/04 09:01:14;;;;;;;10.18;8.70;;;;;;;-141.48;100.00;69781.59;5147060;28;20112;-63
2022/05/04 09:03:45;;;;;;;20.77;9.52;;;;;;;-141.48;100.00;69781.59;5162776;28;20030;-65
2022/05/04 09:06:27;;;;;;;8.18;7.47;;;;;;;-141.48;100.00;69781.59;5147143;28;20030;-65
2022/05/04 09:09:06;;;;;;;12.30;6.93;;;;;;;-141.48;100.00;69781.59;5163766;28;20121;-65
2022/05/04 09:11:42;;;;;;;10.13;8.75;;;;;;;-141.48;100.00;69781.59;5163234;28;20105;-63
2022/05/04 09:14:17;;;;;;;10.68;8.05;;;;;;;-141.48;100.00;69781.59;5166690;28;20391;-62
2022/05/04 09:16:48;;;;;;;9.38;8.57;;;;;;;-141.48;100.00;69781.59;5167711;28;20026;-62
2022/05/04 09:19:19;;;;;;;7.70;6.93;;;;;;;-141.48;100.00;69781.59;5167540;28;20045;-63
2022/05/04 09:21:52;;;;;;;8.48;7.63;;;;;;;-141.48;100.00;69781.59;5150783;28;20100;-64
2022/05/04 09:24:28;;;;;;;18.48;8.65;;;;;;;-141.48;100.00;69781.59;5162438;23;20406;-61
2022/05/04 09:26:59;;;;;;;10.80;7.47;;;;;;;-141.48;100.00;69781.59;5166611;28;20597;-61
2022/05/04 09:29:35;;;;;;;12.85;8.32;;;;;;;-141.48;100.00;69781.59;5150529;28;20050;-61
2022/05/04 09:32:15;;;;;;;10.35;9.00;;;;;;;-141.48;100.00;69781.59;5150571;28;20035;-61
2022/05/04 09:34:46;;;;;;;11.52;9.13;;;;;;;-141.48;100.00;69781.59;5150174;28;20068;-61
2022/05/04 09:46:04;;;;;;;10.63;7.40;;;;;;;-141.48;100.00;69781.59;5106694;29;20067;-61
2022/05/04 09:48:35;;;;;;;9.90;8.23;;;;;;;-141.48;100.00;69781.59;5140540;28;20038;-60
2022/05/04 09:51:07;;;;;;;12.30;8.93;;;;;;;-141.48;100.00;69781.59;5169349;28;20402;-62
2022/05/04 09:53:38;;;;;;;8.20;7.53;;;;;;;-141.48;100.00;69781.59;5168769;28;20371;-62
2022/05/04 09:56:09;;;;;;;10.80;8.93;;;;;;;-141.48;100.00;69781.59;5167482;28;20033;-61
2022/05/04 09:58:40;;;;;;;7.88;7.13;;;;;;;-141.48;100.00;69781.59;5166802;28;20037;-62
2022/05/04 10:01:11;;;;;;;9.90;9.00;;;;;;;-141.48;100.00;69781.59;5167133;28;20034;-62
2022/05/04 10:03:43;;;;;;;9.35;8.65;;;;;;;-141.48;100.00;69781.59;5166531;28;20188;-62
2022/05/04 10:06:15;;;;;;;9.57;8.85;;;;;;;-141.48;100.00;69781.59;5166450;28;20037;-62
2022/05/04 10:08:46;;;;;;;9.98;7.82;;;;;;;-141.48;100.00;69781.59;5163699;28;20081;-62
2022/05/04 10:11:16;;;;;;;10.20;8.25;;;;;;;-141.48;100.00;69781.59;5165505;28;20034;-62
2022/05/04 10:13:53;;;;;;;16.33;10.75;;;;;;;-141.48;100.00;69781.59;5149237;28;20556;-61
2022/05/04 10:16:25;;;;;;;12.07;8.02;;;;;;;-141.48;100.00;69781.59;5149803;28;20030;-62
2022/05/04 10:19:00;;;;;;;15.32;10.05;;;;;;;-141.48;100.00;69781.59;5149947;28;20490;-61
2022/05/04 10:21:31;;;;;;;8.98;8.13;;;;;;;-141.48;100.00;69781.59;5167692;28;20394;-62
2022/05/04 10:24:03;;;;;;;14.25;9.15;;;;;;;-141.48;100.00;69781.59;5149076;28;20094;-61
2022/05/04 10:26:36;;;;;;;8.75;7.95;;;;;;;-141.48;100.00;69781.59;5164800;28;20108;-62
2022/05/04 10:32:32;;;;;;;9.27;8.48;;;;;;;-141.48;100.00;69781.59;5166466;28;20403;-62
2022/05/04 10:35:13;;;;;;;8.13;7.63;;;;;;;-141.48;100.00;69781.59;5164925;28;20033;-63
2022/05/04 10:37:59;;;;;;;9.07;8.18;;;;;;;-141.48;100.00;69781.59;5165148;28;20022;-61
2022/05/04 10:40:36;;;;;;;8.50;7.13;;;;;;;-141.48;100.00;69781.59;5164935;28;20177;-62
2022/05/04 10:43:18;;;;;;;10.75;8.48;;;;;;;-141.48;100.00;69781.59;5165221;28;20026;-62
2022/05/04 10:45:49;;;;;;;9.98;8.57;;;;;;;-141.48;100.00;69781.59;5166386;28;20084;-63
2022/05/04 10:48:19;;;;;;;9.23;8.10;;;;;;;-141.48;100.00;69781.59;5165806;28;20022;-62
2022/05/04 10:50:58;;;;;;;6.72;6.18;;;;;;;-141.48;100.00;69781.59;5181000;28;20033;-62
2022/05/04 10:53:29;;;;;;;12.13;7.15;;;;;;;-141.48;100.00;69781.59;5163732;28;20033;-61
2022/05/04 10:55:59;;;;;;;12.55;8.60;;;;;;;-141.48;100.00;69781.59;5164682;28;20034;-62
2022/05/04 10:58:33;;;;;;;12.02;8.75;;;;;;;-141.48;100.00;69781.59;5164847;28;20037;-63
2022/05/04 11:01:30;;;;;;;10.52;8.63;;;;;;;-141.48;100.00;69781.59;5164253;28;20110;-59
2022/05/04 11:04:10;;;;;;;8.27;7.72;;;;;;;-141.48;100.00;69781.59;5156025;28;20048;-62
2022/05/04 11:07:08;;;;;;;8.43;7.28;;;;;;;-141.48;100.00;69781.59;5164346;28;20026;-62
2022/05/04 11:09:42;;;;;;;8.32;7.63;;;;;;;-141.48;100.00;69781.59;5155890;28;20048;-62
2022/05/04 11:12:13;;;;;;;14.05;8.23;;;;;;;-141.48;100.00;69781.59;5148124;28;20030;-61
2022/05/04 11:14:43;;;;;;;9.02;8.43;;;;;;;-141.48;100.00;69781.59;5148042;28;20034;-61
2022/05/04 11:17:16;;;;;;;7.90;7.22;;;;;;;-141.48;100.00;69781.59;5165991;28;20478;-60
2022/05/04 11:19:48;;;;;;;9.27;8.38;;;;;;;-141.48;100.00;69781.59;5164601;28;20387;-61
2022/05/04 11:22:19;;;;;;;10.02;7.50;;;;;;;-141.48;100.00;69781.59;5164579;28;20056;-60
2022/05/04 11:24:50;;;;;;;12.35;8.05;;;;;;;-141.48;100.00;69781.59;5148550;28;20030;-61
2022/05/04 11:27:20;;;;;;;9.98;9.15;;;;;;;-141.48;100.00;69781.59;5165266;28;20033;-62
2022/05/04 11:29:51;;;;;;;18.20;8.20;;;;;;;-141.48;100.00;69781.59;5165265;28;20030;-60
2022/05/04 11:32:21;;;;;;;8.32;7.68;;;;;;;-141.48;100.00;69781.59;5165225;28;20026;-60
2022/05/04 11:34:52;;;;;;;11.23;8.13;;;;;;;-141.48;100.00;69781.59;5164891;28;20030;-62
2022/05/04 11:37:23;;;;;;;8.00;7.22;;;;;;;-141.48;100.00;69781.59;5148956;28;20018;-62
2022/05/04 11:39:54;;;;;;;11.25;8.50;;;;;;;-141.48;100.00;69781.59;5165845;28;20030;-61
2022/05/04 11:42:24;;;;;;;14.13;8.15;;;;;;;-141.48;100.00;69781.59;5148240;28;20402;-61
2022/05/04 11:44:57;;;;;;;17.10;8.07;;;;;;;-141.48;100.00;69781.59;5148011;28;20500;-63
2022/05/04 11:47:28;;;;;;;8.43;7.70;;;;;;;-141.48;100.00;69781.59;5165117;28;20030;-62
2022/05/04 11:49:59;;;;;;;9.02;8.10;;;;;;;-141.48;100.00;69781.59;5164591;28;20413;-62
2022/05/04 11:52:29;;;;;;;11.60;9.45;;;;;;;-141.48;100.00;69781.59;5148677;28;20104;-62
2022/05/04 11:55:02;;;;;;;8.57;7.88;;;;;;;-141.48;100.00;69781.59;5164732;28;20034;-62
2022/05/04 11:57:40;;;;;;;10.35;8.93;;;;;;;-141.48;100.00;69781.59;5164827;28;20169;-61
2022/05/04 12:00:14;;;;;;;9.02;8.15;;;;;;;-141.48;100.00;69781.59;5149363;28;20092;-61
2022/05/04 12:02:45;;;;;;;9.13;7.70;;;;;;;-141.48;100.00;69781.59;5149478;28;20359;-62
2022/05/04 12:05:17;;;;;;;12.15;8.35;;;;;;;-141.48;100.00;69781.59;5166075;28;20486;-61